Terminal Aerodrome Forecast
Issued by NWS

Home | Current Version | Previous Version | Text Only | Print | Product List | Glossary On
Versions: 1 2 3 4 5 6 7 8 9 10 11 12
595
FTAK31 PAJN 241739
TAFAPG
TAF
PAPG 241739Z 2418/2518 26006KT P6SM SCT030 SCT060
     FM242100 VRB05KT P6SM SCT060
     FM251000 00000KT P6SM VCSH BKN025 OVC050
      AMD LTD TO CLD VIS AND WIND 2506/2515=

USA.gov is the U.S. government's official web portal to all federal, state and local government web resources and services.